sensor_id;sensor_type;location;lat;lon;timestamp;pressure;altitude;pressure_sealevel;temperature;humidity
18985;BME280;9626;52.552;13.436;2024-03-08T00:02:18;101813.72;;;2.92;100.00
18985;BME280;9626;52.552;13.436;2024-03-08T00:04:45;101818.75;;;2.84;100.00
18985;BME280;9626;52.552;13.436;2024-03-08T00:07:11;101815.78;;;2.72;100.00
18985;BME280;9626;52.552;13.436;2024-03-08T00:09:39;101814.00;;;2.70;100.00
18985;BME280;9626;52.552;13.436;2024-03-08T00:12:05;101814.44;;;2.57;100.00
18985;BME280;9626;52.552;13.436;2024-03-08T00:14:32;101811.44;;;2.45;100.00
18985;BME280;9626;52.552;13.436;2024-03-08T00:16:58;101807.78;;;2.40;100.00
18985;BME280;9626;52.552;13.436;2024-03-08T00:19:24;101812.06;;;2.36;100.00
18985;BME280;9626;52.552;13.436;2024-03-08T00:21:50;101819.03;;;2.37;100.00
18985;BME280;9626;52.552;13.436;2024-03-08T00:24:16;101811.66;;;2.51;100.00
18985;BME280;9626;52.552;13.436;2024-03-08T00:26:42;101818.38;;;2.43;100.00
18985;BME280;9626;52.552;13.436;2024-03-08T00:29:09;101812.94;;;2.36;100.00
18985;BME280;9626;52.552;13.436;2024-03-08T00:31:35;101801.31;;;2.27;100.00
18985;BME280;9626;52.552;13.436;2024-03-08T00:34:01;101809.31;;;2.33;100.00
18985;BME280;9626;52.552;13.436;2024-03-08T00:36:27;101810.41;;;2.40;100.00
18985;BME280;9626;52.552;13.436;2024-03-08T00:38:56;101816.69;;;2.45;100.00
18985;BME280;9626;52.552;13.436;2024-03-08T00:41:22;101816.97;;;2.54;100.00
18985;BME280;9626;52.552;13.436;2024-03-08T00:43:48;101809.03;;;2.51;100.00
18985;BME280;9626;52.552;13.436;2024-03-08T00:46:14;101806.91;;;2.39;100.00
18985;BME280;9626;52.552;13.436;2024-03-08T00:48:40;101800.22;;;2.20;100.00
18985;BME280;9626;52.552;13.436;2024-03-08T00:51:09;101794.59;;;2.08;100.00
18985;BME280;9626;52.552;13.436;2024-03-08T00:53:35;101797.94;;;2.03;100.00
18985;BME280;9626;52.552;13.436;2024-03-08T00:56:02;101789.28;;;2.05;100.00
18985;BME280;9626;52.552;13.436;2024-03-08T00:58:28;101799.91;;;2.11;100.00
18985;BME280;9626;52.552;13.436;2024-03-08T01:00:54;101793.47;;;2.27;100.00
18985;BME280;9626;52.552;13.436;2024-03-08T01:03:22;101791.63;;;2.24;100.00
18985;BME280;9626;52.552;13.436;2024-03-08T01:05:48;101791.16;;;2.36;100.00
18985;BME280;9626;52.552;13.436;2024-03-08T01:08:14;101789.19;;;2.30;100.00
18985;BME280;9626;52.552;13.436;2024-03-08T01:10:40;101777.56;;;2.20;100.00
18985;BME280;9626;52.552;13.436;2024-03-08T01:13:06;101773.59;;;2.05;100.00
18985;BME280;9626;52.552;13.436;2024-03-08T01:15:32;101774.41;;;2.03;100.00
18985;BME280;9626;52.552;13.436;2024-03-08T01:17:58;101771.06;;;2.08;100.00
18985;BME280;9626;52.552;13.436;2024-03-08T01:20:24;101768.06;;;2.23;100.00
18985;BME280;9626;52.552;13.436;2024-03-08T01:22:50;101765.19;;;2.15;100.00
18985;BME280;9626;52.552;13.436;2024-03-08T01:25:16;101762.50;;;2.12;100.00
18985;BME280;9626;52.552;13.436;2024-03-08T01:27:42;101754.75;;;2.15;100.00
18985;BME280;9626;52.552;13.436;2024-03-08T01:30:08;101757.41;;;2.16;100.00
18985;BME280;9626;52.552;13.436;2024-03-08T01:32:38;101753.47;;;2.29;100.00
18985;BME280;9626;52.552;13.436;2024-03-08T01:35:04;101750.25;;;2.11;100.00
18985;BME280;9626;52.552;13.436;2024-03-08T01:37:30;101757.69;;;1.98;100.00
18985;BME280;9626;52.552;13.436;2024-03-08T01:39:57;101755.91;;;1.97;100.00
18985;BME280;9626;52.552;13.436;2024-03-08T01:42:23;101744.69;;;2.00;100.00
18985;BME280;9626;52.552;13.436;2024-03-08T01:44:49;101745.28;;;1.91;100.00
18985;BME280;9626;52.552;13.436;2024-03-08T01:47:16;101737.19;;;1.83;100.00
18985;BME280;9626;52.552;13.436;2024-03-08T01:49:43;101742.75;;;1.94;100.00
18985;BME280;9626;52.552;13.436;2024-03-08T01:52:10;101736.66;;;1.94;100.00
18985;BME280;9626;52.552;13.436;2024-03-08T01:54:37;101739.00;;;1.86;100.00
18985;BME280;9626;52.552;13.436;2024-03-08T01:57:03;101732.09;;;1.88;100.00
18985;BME280;9626;52.552;13.436;2024-03-08T01:59:29;101729.44;;;1.86;100.00
18985;BME280;9626;52.552;13.436;2024-03-08T02:01:55;101728.72;;;1.65;100.00
18985;BME280;9626;52.552;13.436;2024-03-08T02:04:24;101731.97;;;1.58;100.00
18985;BME280;9626;52.552;13.436;2024-03-08T02:06:50;101729.03;;;1.48;100.00
18985;BME280;9626;52.552;13.436;2024-03-08T02:09:17;101728.75;;;1.39;100.00
18985;BME280;9626;52.552;13.436;2024-03-08T02:11:43;101722.63;;;1.39;100.00
18985;BME280;9626;52.552;13.436;2024-03-08T02:14:09;101715.94;;;1.47;100.00
18985;BME280;9626;52.552;13.436;2024-03-08T02:16:37;101715.13;;;1.48;100.00
18985;BME280;9626;52.552;13.436;2024-03-08T02:19:03;101715.03;;;1.45;100.00
18985;BME280;9626;52.552;13.436;2024-03-08T02:21:29;101708.66;;;1.37;100.00
18985;BME280;9626;52.552;13.436;2024-03-08T02:23:55;101711.88;;;1.29;100.00
18985;BME280;9626;52.552;13.436;2024-03-08T02:26:21;101709.09;;;1.25;100.00
18985;BME280;9626;52.552;13.436;2024-03-08T02:28:48;101708.88;;;1.18;100.00
18985;BME280;9626;52.552;13.436;2024-03-08T02:31:14;101704.56;;;1.19;100.00
18985;BME280;9626;52.552;13.436;2024-03-08T02:33:40;101702.00;;;1.21;100.00
18985;BME280;9626;52.552;13.436;2024-03-08T02:36:07;101706.75;;;1.07;100.00
18985;BME280;9626;52.552;13.436;2024-03-08T02:38:33;101698.78;;;1.04;100.00
18985;BME280;9626;52.552;13.436;2024-03-08T02:40:59;101705.88;;;1.08;100.00
18985;BME280;9626;52.552;13.436;2024-03-08T02:43:24;101704.53;;;0.93;100.00
18985;BME280;9626;52.552;13.436;2024-03-08T02:45:51;101702.78;;;1.18;100.00
18985;BME280;9626;52.552;13.436;2024-03-08T02:48:18;101700.28;;;1.21;100.00
18985;BME280;9626;52.552;13.436;2024-03-08T02:50:44;101692.56;;;1.24;100.00
18985;BME280;9626;52.552;13.436;2024-03-08T02:53:13;101696.84;;;1.22;100.00
18985;BME280;9626;52.552;13.436;2024-03-08T02:55:40;101696.00;;;1.23;100.00
18985;BME280;9626;52.552;13.436;2024-03-08T02:58:06;101688.00;;;1.44;100.00
18985;BME280;9626;52.552;13.436;2024-03-08T03:00:38;101690.06;;;1.53;100.00
18985;BME280;9626;52.552;13.436;2024-03-08T03:03:04;101680.78;;;1.35;100.00
18985;BME280;9626;52.552;13.436;2024-03-08T03:05:30;101687.00;;;1.39;100.00
18985;BME280;9626;52.552;13.436;2024-03-08T03:07:56;101693.91;;;1.39;100.00
18985;BME280;9626;52.552;13.436;2024-03-08T03:10:24;101682.44;;;1.33;100.00
18985;BME280;9626;52.552;13.436;2024-03-08T03:12:51;101685.00;;;1.32;100.00
18985;BME280;9626;52.552;13.436;2024-03-08T03:15:18;101685.63;;;1.25;100.00
18985;BME280;9626;52.552;13.436;2024-03-08T03:17:50;101690.69;;;1.20;100.00
18985;BME280;9626;52.552;13.436;2024-03-08T03:20:17;101685.91;;;1.32;100.00
18985;BME280;9626;52.552;13.436;2024-03-08T03:22:49;101684.22;;;1.34;100.00
18985;BME280;9626;52.552;13.436;2024-03-08T03:25:21;101682.38;;;1.32;100.00
18985;BME280;9626;52.552;13.436;2024-03-08T03:27:59;101685.19;;;1.12;100.00
18985;BME280;9626;52.552;13.436;2024-03-08T03:30:25;101689.94;;;0.98;100.00
18985;BME280;9626;52.552;13.436;2024-03-08T03:33:02;101682.94;;;0.97;100.00
18985;BME280;9626;52.552;13.436;2024-03-08T03:35:32;101679.09;;;1.12;100.00
18985;BME280;9626;52.552;13.436;2024-03-08T03:37:58;101681.81;;;1.15;100.00
18985;BME280;9626;52.552;13.436;2024-03-08T03:40:28;101678.06;;;1.07;100.00
18985;BME280;9626;52.552;13.436;2024-03-08T03:42:55;101673.97;;;0.89;100.00
18985;BME280;9626;52.552;13.436;2024-03-08T03:45:22;101679.47;;;0.97;100.00
18985;BME280;9626;52.552;13.436;2024-03-08T03:47:48;101677.63;;;0.94;100.00
18985;BME280;9626;52.552;13.436;2024-03-08T03:50:14;101673.56;;;1.03;100.00
18985;BME280;9626;52.552;13.436;2024-03-08T03:52:40;101676.38;;;0.84;100.00
18985;BME280;9626;52.552;13.436;2024-03-08T03:55:08;101678.94;;;0.83;100.00
18985;BME280;9626;52.552;13.436;2024-03-08T03:57:34;101673.97;;;0.89;100.00
18985;BME280;9626;52.552;13.436;2024-03-08T04:00:00;101671.84;;;0.79;100.00
18985;BME280;9626;52.552;13.436;2024-03-08T04:02:28;101670.38;;;0.87;100.00
18985;BME280;9626;52.552;13.436;2024-03-08T04:04:54;101673.09;;;0.89;100.00
18985;BME280;9626;52.552;13.436;2024-03-08T04:07:20;101675.94;;;0.96;100.00
18985;BME280;9626;52.552;13.436;2024-03-08T04:09:47;101674.88;;;0.91;100.00
18985;BME280;9626;52.552;13.436;2024-03-08T04:12:13;101675.06;;;0.72;100.00
18985;BME280;9626;52.552;13.436;2024-03-08T04:14:42;101675.13;;;0.73;100.00
18985;BME280;9626;52.552;13.436;2024-03-08T04:17:08;101670.84;;;0.75;100.00
18985;BME280;9626;52.552;13.436;2024-03-08T04:19:38;101674.34;;;0.76;100.00
18985;BME280;9626;52.552;13.436;2024-03-08T04:22:06;101671.97;;;0.82;100.00
18985;BME280;9626;52.552;13.436;2024-03-08T04:24:33;101675.06;;;0.72;100.00
18985;BME280;9626;52.552;13.436;2024-03-08T04:26:59;101680.38;;;0.75;100.00
18985;BME280;9626;52.552;13.436;2024-03-08T04:29:25;101684.72;;;0.74;100.00
18985;BME280;9626;52.552;13.436;2024-03-08T04:31:52;101671.44;;;0.92;100.00
18985;BME280;9626;52.552;13.436;2024-03-08T04:34:21;101678.06;;;0.82;100.00
18985;BME280;9626;52.552;13.436;2024-03-08T04:36:48;101674.50;;;0.80;100.00
18985;BME280;9626;52.552;13.436;2024-03-08T04:39:14;101669.06;;;0.74;100.00
18985;BME280;9626;52.552;13.436;2024-03-08T04:41:42;101678.50;;;0.71;100.00
18985;BME280;9626;52.552;13.436;2024-03-08T04:44:11;101669.75;;;0.69;100.00
18985;BME280;9626;52.552;13.436;2024-03-08T04:46:38;101675.94;;;0.72;100.00
18985;BME280;9626;52.552;13.436;2024-03-08T04:49:04;101664.97;;;0.81;100.00
18985;BME280;9626;52.552;13.436;2024-03-08T04:51:30;101673.28;;;0.71;100.00
18985;BME280;9626;52.552;13.436;2024-03-08T04:53:56;101675.72;;;0.66;100.00
18985;BME280;9626;52.552;13.436;2024-03-08T04:56:23;101668.69;;;0.63;100.00
18985;BME280;9626;52.552;13.436;2024-03-08T04:58:49;101666.06;;;0.63;100.00
18985;BME280;9626;52.552;13.436;2024-03-08T05:01:15;101661.09;;;0.70;100.00
18985;BME280;9626;52.552;13.436;2024-03-08T05:03:41;101666.06;;;0.63;100.00
18985;BME280;9626;52.552;13.436;2024-03-08T05:06:07;101659.31;;;0.69;100.00
18985;BME280;9626;52.552;13.436;2024-03-08T05:08:33;101663.41;;;0.62;100.00
18985;BME280;9626;52.552;13.436;2024-03-08T05:11:01;101665.97;;;0.60;100.00
18985;BME280;9626;52.552;13.436;2024-03-08T05:13:32;101664.09;;;0.56;100.00
18985;BME280;9626;52.552;13.436;2024-03-08T05:15:58;101666.50;;;0.52;100.00
18985;BME280;9626;52.552;13.436;2024-03-08T05:18:24;101671.03;;;0.57;100.00
18985;BME280;9626;52.552;13.436;2024-03-08T05:20:50;101663.13;;;0.54;100.00
18985;BME280;9626;52.552;13.436;2024-03-08T05:23:17;101659.44;;;0.49;100.00
18985;BME280;9626;52.552;13.436;2024-03-08T05:25:45;101656.84;;;0.49;100.00
18985;BME280;9626;52.552;13.436;2024-03-08T05:28:13;101659.41;;;0.47;100.00
18985;BME280;9626;52.552;13.436;2024-03-08T05:30:38;101663.91;;;0.52;100.00
18985;BME280;9626;52.552;13.436;2024-03-08T05:33:05;101662.19;;;0.52;100.00
18985;BME280;9626;52.552;13.436;2024-03-08T05:35:31;101659.38;;;0.70;100.00
18985;BME280;9626;52.552;13.436;2024-03-08T05:37:58;101658.66;;;0.74;100.00
18985;BME280;9626;52.552;13.436;2024-03-08T05:40:24;101658.25;;;0.88;100.00
18985;BME280;9626;52.552;13.436;2024-03-08T05:42:50;101650.00;;;0.75;100.00
18985;BME280;9626;52.552;13.436;2024-03-08T05:45:16;101652.09;;;0.61;100.00
18985;BME280;9626;52.552;13.436;2024-03-08T05:47:41;101651.44;;;0.67;100.00
18985;BME280;9626;52.552;13.436;2024-03-08T05:50:08;101650.06;;;0.77;100.00
18985;BME280;9626;52.552;13.436;2024-03-08T05:52:37;101650.44;;;0.63;100.00
18985;BME280;9626;52.552;13.436;2024-03-08T05:55:04;101657.97;;;0.56;100.00
18985;BME280;9626;52.552;13.436;2024-03-08T05:57:33;101654.91;;;0.43;100.00
18985;BME280;9626;52.552;13.436;2024-03-08T05:59:59;101653.97;;;0.41;100.00
18985;BME280;9626;52.552;13.436;2024-03-08T06:02:25;101655.34;;;0.31;100.00
18985;BME280;9626;52.552;13.436;2024-03-08T06:04:51;101658.19;;;0.38;100.00
18985;BME280;9626;52.552;13.436;2024-03-08T06:07:17;101662.91;;;0.48;100.00
18985;BME280;9626;52.552;13.436;2024-03-08T06:09:43;101662.06;;;0.49;100.00
18985;BME280;9626;52.552;13.436;2024-03-08T06:12:12;101663.94;;;0.53;100.00
18985;BME280;9626;52.552;13.436;2024-03-08T06:14:38;101673.19;;;0.45;100.00
18985;BME280;9626;52.552;13.436;2024-03-08T06:17:04;101667.41;;;0.52;100.00
18985;BME280;9626;52.552;13.436;2024-03-08T06:19:33;101667.63;;;0.58;100.00
18985;BME280;9626;52.552;13.436;2024-03-08T06:21:59;101664.19;;;0.59;100.00
18985;BME280;9626;52.552;13.436;2024-03-08T06:24:28;101671.19;;;0.60;100.00
18985;BME280;9626;52.552;13.436;2024-03-08T06:26:54;101665.00;;;0.58;100.00
18985;BME280;9626;52.552;13.436;2024-03-08T06:29:20;101671.41;;;0.66;100.00
18985;BME280;9626;52.552;13.436;2024-03-08T06:31:46;101666.19;;;0.66;100.00
18985;BME280;9626;52.552;13.436;2024-03-08T06:34:12;101663.00;;;0.74;100.00
18985;BME280;9626;52.552;13.436;2024-03-08T06:36:38;101670.25;;;0.82;100.00
18985;BME280;9626;52.552;13.436;2024-03-08T06:39:04;101665.06;;;0.84;100.00
18985;BME280;9626;52.552;13.436;2024-03-08T06:41:36;101663.63;;;0.92;100.00
18985;BME280;9626;52.552;13.436;2024-03-08T06:44:02;101663.63;;;0.92;100.00
18985;BME280;9626;52.552;13.436;2024-03-08T06:46:28;101665.75;;;1.03;100.00
18985;BME280;9626;52.552;13.436;2024-03-08T06:48:54;101663.97;;;1.01;100.00
18985;BME280;9626;52.552;13.436;2024-03-08T06:51:20;101667.88;;;1.14;100.00
18985;BME280;9626;52.552;13.436;2024-03-08T06:53:46;101664.59;;;1.20;100.00
18985;BME280;9626;52.552;13.436;2024-03-08T06:56:12;101661.25;;;1.24;100.00
18985;BME280;9626;52.552;13.436;2024-03-08T06:58:38;101661.03;;;1.44;100.00
18985;BME280;9626;52.552;13.436;2024-03-08T07:01:04;101668.78;;;1.41;100.00
18985;BME280;9626;52.552;13.436;2024-03-08T07:03:33;101658.53;;;1.47;100.00
18985;BME280;9626;52.552;13.436;2024-03-08T07:05:59;101659.25;;;1.43;100.00
18985;BME280;9626;52.552;13.436;2024-03-08T07:08:25;101660.41;;;1.51;100.00
18985;BME280;9626;52.552;13.436;2024-03-08T07:10:53;101660.59;;;1.57;100.00
18985;BME280;9626;52.552;13.436;2024-03-08T07:13:20;101667.88;;;1.67;100.00
18985;BME280;9626;52.552;13.436;2024-03-08T07:15:47;101656.19;;;1.82;100.00
18985;BME280;9626;52.552;13.436;2024-03-08T07:18:13;101661.88;;;1.97;100.00
18985;BME280;9626;52.552;13.436;2024-03-08T07:20:41;101662.13;;;2.05;100.00
18985;BME280;9626;52.552;13.436;2024-03-08T07:23:07;101662.63;;;2.22;100.00
18985;BME280;9626;52.552;13.436;2024-03-08T07:25:34;101657.81;;;2.36;100.00
18985;BME280;9626;52.552;13.436;2024-03-08T07:28:01;101660.78;;;2.48;100.00
18985;BME280;9626;52.552;13.436;2024-03-08T07:30:27;101662.22;;;2.67;100.00
18985;BME280;9626;52.552;13.436;2024-03-08T07:33:11;101655.78;;;2.88;100.00
18985;BME280;9626;52.552;13.436;2024-03-08T07:35:38;101657.28;;;3.12;100.00
18985;BME280;9626;52.552;13.436;2024-03-08T07:38:05;101654.19;;;3.27;100.00
18985;BME280;9626;52.552;13.436;2024-03-08T07:40:38;101646.91;;;3.50;100.00
18985;BME280;9626;52.552;13.436;2024-03-08T07:43:07;101639.53;;;3.70;100.00
18985;BME280;9626;52.552;13.436;2024-03-08T07:45:33;101642.94;;;4.04;100.00
18985;BME280;9626;52.552;13.436;2024-03-08T07:47:59;101626.97;;;4.33;100.00
18985;BME280;9626;52.552;13.436;2024-03-08T07:50:25;101624.88;;;4.61;100.00
18985;BME280;9626;52.552;13.436;2024-03-08T07:52:51;101623.41;;;4.73;98.38
18985;BME280;9626;52.552;13.436;2024-03-08T07:55:17;101600.25;;;5.00;93.74
18985;BME280;9626;52.552;13.436;2024-03-08T07:57:43;101608.56;;;5.26;91.02
18985;BME280;9626;52.552;13.436;2024-03-08T08:00:09;101596.38;;;5.28;90.91
18985;BME280;9626;52.552;13.436;2024-03-08T08:02:36;101592.31;;;5.47;86.91
18985;BME280;9626;52.552;13.436;2024-03-08T08:05:02;101589.72;;;5.52;86.59
18985;BME280;9626;52.552;13.436;2024-03-08T08:07:29;101584.00;;;5.79;85.62
18985;BME280;9626;52.552;13.436;2024-03-08T08:09:55;101591.34;;;5.99;84.57
18985;BME280;9626;52.552;13.436;2024-03-08T08:12:21;101573.09;;;6.13;80.46
18985;BME280;9626;52.552;13.436;2024-03-08T08:14:47;101573.16;;;6.19;80.30
18985;BME280;9626;52.552;13.436;2024-03-08T08:17:13;101578.69;;;6.40;79.71
18985;BME280;9626;52.552;13.436;2024-03-08T08:19:41;101573.81;;;6.01;79.22
18985;BME280;9626;52.552;13.436;2024-03-08T08:22:07;101572.75;;;5.88;79.61
18985;BME280;9626;52.552;13.436;2024-03-08T08:24:34;101568.03;;;6.28;78.63
18985;BME280;9626;52.552;13.436;2024-03-08T08:27:03;101557.63;;;6.37;75.18
18985;BME280;9626;52.552;13.436;2024-03-08T08:29:29;101547.47;;;6.74;75.17
18985;BME280;9626;52.552;13.436;2024-03-08T08:31:58;101541.69;;;7.16;70.93
18985;BME280;9626;52.552;13.436;2024-03-08T08:34:25;101534.88;;;7.44;69.27
18985;BME280;9626;52.552;13.436;2024-03-08T08:36:52;101540.75;;;7.04;70.03
18985;BME280;9626;52.552;13.436;2024-03-08T08:39:19;101536.38;;;7.05;69.04
18985;BME280;9626;52.552;13.436;2024-03-08T08:41:44;101516.69;;;7.92;67.54
18985;BME280;9626;52.552;13.436;2024-03-08T08:44:10;101499.22;;;8.17;62.98
18985;BME280;9626;52.552;13.436;2024-03-08T08:46:38;101493.19;;;8.61;60.70
18985;BME280;9626;52.552;13.436;2024-03-08T08:49:05;101488.81;;;8.96;58.79
18985;BME280;9626;52.552;13.436;2024-03-08T08:51:32;101475.63;;;8.73;58.50
18985;BME280;9626;52.552;13.436;2024-03-08T08:54:01;101479.13;;;8.92;58.32
18985;BME280;9626;52.552;13.436;2024-03-08T08:56:27;101482.66;;;8.68;58.94
18985;BME280;9626;52.552;13.436;2024-03-08T08:58:54;101466.81;;;8.99;57.60
18985;BME280;9626;52.552;13.436;2024-03-08T09:01:20;101486.06;;;9.58;62.50
18985;BME280;9626;52.552;13.436;2024-03-08T09:03:46;101457.75;;;9.88;56.03
18985;BME280;9626;52.552;13.436;2024-03-08T09:06:13;101453.94;;;10.43;54.33
18985;BME280;9626;52.552;13.436;2024-03-08T09:08:39;101432.72;;;10.49;52.35
18985;BME280;9626;52.552;13.436;2024-03-08T09:11:05;101417.28;;;10.97;51.46
18985;BME280;9626;52.552;13.436;2024-03-08T09:13:31;101412.63;;;10.17;50.79
18985;BME280;9626;52.552;13.436;2024-03-08T09:15:59;101424.88;;;10.35;50.91
18985;BME280;9626;52.552;13.436;2024-03-08T09:18:25;101404.88;;;11.01;49.43
18985;BME280;9626;52.552;13.436;2024-03-08T09:20:52;101404.59;;;11.27;48.93
18985;BME280;9626;52.552;13.436;2024-03-08T09:23:19;101394.41;;;10.89;48.76
18985;BME280;9626;52.552;13.436;2024-03-08T09:25:45;101406.78;;;10.90;48.45
18985;BME280;9626;52.552;13.436;2024-03-08T09:28:12;101388.81;;;11.20;47.87
18985;BME280;9626;52.552;13.436;2024-03-08T09:30:39;101381.47;;;11.42;46.80
18985;BME280;9626;52.552;13.436;2024-03-08T09:33:05;101371.28;;;11.78;46.81
18985;BME280;9626;52.552;13.436;2024-03-08T09:35:32;101372.59;;;11.44;46.57
18985;BME280;9626;52.552;13.436;2024-03-08T09:37:58;101374.41;;;11.41;48.76
18985;BME280;9626;52.552;13.436;2024-03-08T09:40:24;101370.72;;;11.53;48.12
18985;BME280;9626;52.552;13.436;2024-03-08T09:42:51;101367.75;;;11.77;46.64
18985;BME280;9626;52.552;13.436;2024-03-08T09:45:20;101364.69;;;11.41;46.39
18985;BME280;9626;52.552;13.436;2024-03-08T09:47:47;101361.91;;;11.50;45.78
18985;BME280;9626;52.552;13.436;2024-03-08T09:50:16;101364.03;;;11.24;45.79
18985;BME280;9626;52.552;13.436;2024-03-08T09:52:46;101355.03;;;11.34;46.34
18985;BME280;9626;52.552;13.436;2024-03-08T09:55:12;101372.03;;;11.86;46.66
18985;BME280;9626;52.552;13.436;2024-03-08T09:57:42;101361.34;;;11.95;46.40
18985;BME280;9626;52.552;13.436;2024-03-08T10:00:28;101353.34;;;11.94;45.72
18985;BME280;9626;52.552;13.436;2024-03-08T10:03:00;101345.97;;;12.69;44.47
18985;BME280;9626;52.552;13.436;2024-03-08T10:05:26;101340.97;;;13.02;46.43
18985;BME280;9626;52.552;13.436;2024-03-08T10:07:52;101343.94;;;12.83;44.04
18985;BME280;9626;52.552;13.436;2024-03-08T10:10:18;101340.56;;;13.21;42.44
18985;BME280;9626;52.552;13.436;2024-03-08T10:12:45;101312.09;;;13.26;42.25
18985;BME280;9626;52.552;13.436;2024-03-08T10:15:11;101312.28;;;13.99;39.71
18985;BME280;9626;52.552;13.436;2024-03-08T10:17:42;101300.50;;;14.08;40.90
18985;BME280;9626;52.552;13.436;2024-03-08T10:20:16;101297.53;;;13.45;39.53
18985;BME280;9626;52.552;13.436;2024-03-08T10:22:42;101298.47;;;13.44;39.84
18985;BME280;9626;52.552;13.436;2024-03-08T10:25:13;101308.56;;;12.31;42.09
18985;BME280;9626;52.552;13.436;2024-03-08T10:27:39;101322.94;;;11.56;44.20
18985;BME280;9626;52.552;13.436;2024-03-08T10:30:11;101328.06;;;11.68;44.64
18985;BME280;9626;52.552;13.436;2024-03-08T10:32:38;101326.69;;;11.39;44.36
18985;BME280;9626;52.552;13.436;2024-03-08T10:35:05;101322.09;;;10.80;44.94
18985;BME280;9626;52.552;13.436;2024-03-08T10:37:37;101325.81;;;10.61;45.38
18985;BME280;9626;52.552;13.436;2024-03-08T10:40:17;101328.69;;;10.38;46.38
18985;BME280;9626;52.552;13.436;2024-03-08T10:42:53;101317.03;;;10.56;45.54
18985;BME280;9626;52.552;13.436;2024-03-08T10:45:35;101321.50;;;10.51;45.67
18985;BME280;9626;52.552;13.436;2024-03-08T10:48:22;101315.06;;;10.76;45.49
18985;BME280;9626;52.552;13.436;2024-03-08T10:50:52;101317.38;;;11.07;46.16
18985;BME280;9626;52.552;13.436;2024-03-08T10:53:18;101299.59;;;11.17;44.23
18985;BME280;9626;52.552;13.436;2024-03-08T10:55:49;101295.91;;;11.29;44.12
18985;BME280;9626;52.552;13.436;2024-03-08T10:58:15;101296.25;;;11.68;43.81
18985;BME280;9626;52.552;13.436;2024-03-08T11:00:42;101280.50;;;12.16;42.13
18985;BME280;9626;52.552;13.436;2024-03-08T11:06:31;101254.19;;;12.52;40.97
18985;BME280;9626;52.552;13.436;2024-03-08T11:09:32;101254.25;;;13.37;39.32
18985;BME280;9626;52.552;13.436;2024-03-08T11:12:37;101236.44;;;13.80;38.42
18985;BME280;9626;52.552;13.436;2024-03-08T11:15:12;101231.53;;;13.21;39.07
18985;BME280;9626;52.552;13.436;2024-03-08T11:17:49;101227.78;;;13.72;38.96
18985;BME280;9626;52.552;13.436;2024-03-08T11:20:19;101219.91;;;14.03;38.18
18985;BME280;9626;52.552;13.436;2024-03-08T11:22:54;101210.69;;;13.80;37.25
18985;BME280;9626;52.552;13.436;2024-03-08T11:25:32;101203.19;;;13.60;37.31
18985;BME280;9626;52.552;13.436;2024-03-08T11:30:36;101200.00;;;13.05;38.45
18985;BME280;9626;52.552;13.436;2024-03-08T11:33:04;101203.81;;;12.92;38.00
18985;BME280;9626;52.552;13.436;2024-03-08T11:35:30;101196.16;;;13.94;38.44
18985;BME280;9626;52.552;13.436;2024-03-08T11:37:59;101174.06;;;14.56;35.59
18985;BME280;9626;52.552;13.436;2024-03-08T11:40:26;101163.75;;;14.77;35.10
18985;BME280;9626;52.552;13.436;2024-03-08T11:42:52;101165.75;;;14.98;34.70
18985;BME280;9626;52.552;13.436;2024-03-08T11:45:18;101159.81;;;14.88;34.30
18985;BME280;9626;52.552;13.436;2024-03-08T11:47:47;101161.56;;;14.58;34.21
18985;BME280;9626;52.552;13.436;2024-03-08T11:50:14;101161.44;;;14.63;34.23
18985;BME280;9626;52.552;13.436;2024-03-08T11:52:40;101156.94;;;15.51;32.88
18985;BME280;9626;52.552;13.436;2024-03-08T11:55:07;101163.66;;;14.47;34.30
18985;BME280;9626;52.552;13.436;2024-03-08T11:57:33;101179.50;;;13.10;35.85
18985;BME280;9626;52.552;13.436;2024-03-08T11:59:59;101177.84;;;12.17;37.69
18985;BME280;9626;52.552;13.436;2024-03-08T12:02:35;101187.88;;;11.43;38.40
18985;BME280;9626;52.552;13.436;2024-03-08T12:05:06;101201.25;;;11.37;39.32
18985;BME280;9626;52.552;13.436;2024-03-08T12:07:34;101203.88;;;11.95;38.22
18985;BME280;9626;52.552;13.436;2024-03-08T12:10:20;101190.75;;;12.81;36.45
18985;BME280;9626;52.552;13.436;2024-03-08T12:12:56;101179.78;;;12.96;36.20
18985;BME280;9626;52.552;13.436;2024-03-08T12:15:27;101178.94;;;12.04;37.49
18985;BME280;9626;52.552;13.436;2024-03-08T12:17:54;101176.69;;;11.79;38.71
18985;BME280;9626;52.552;13.436;2024-03-08T12:20:27;101186.84;;;12.08;39.46
18985;BME280;9626;52.552;13.436;2024-03-08T12:22:58;101179.25;;;12.80;37.48
18985;BME280;9626;52.552;13.436;2024-03-08T12:25:30;101172.75;;;13.33;35.63
18985;BME280;9626;52.552;13.436;2024-03-08T12:28:10;101157.59;;;13.74;34.94
18985;BME280;9626;52.552;13.436;2024-03-08T12:30:45;101157.69;;;13.71;34.57
18985;BME280;9626;52.552;13.436;2024-03-08T12:33:11;101142.03;;;13.93;34.47
18985;BME280;9626;52.552;13.436;2024-03-08T12:35:38;101141.41;;;14.48;34.35
18985;BME280;9626;52.552;13.436;2024-03-08T12:38:04;101142.03;;;13.93;35.62
18985;BME280;9626;52.552;13.436;2024-03-08T12:40:32;101143.41;;;14.08;35.93
18985;BME280;9626;52.552;13.436;2024-03-08T12:43:01;101131.13;;;14.02;34.65
18985;BME280;9626;52.552;13.436;2024-03-08T12:45:27;101147.50;;;14.53;34.06
18985;BME280;9626;52.552;13.436;2024-03-08T12:47:54;101220.09;;;14.61;34.51
18985;BME280;9626;52.552;13.436;2024-03-08T12:50:21;101231.28;;;14.43;35.11
18985;BME280;9626;52.552;13.436;2024-03-08T12:52:48;101232.69;;;14.56;35.07
18985;BME280;9626;52.552;13.436;2024-03-08T12:55:15;101228.41;;;14.83;34.70
18985;BME280;9626;52.552;13.436;2024-03-08T12:57:44;101239.31;;;15.64;33.75
18985;BME280;9626;52.552;13.436;2024-03-08T13:00:11;101239.50;;;15.58;33.58